createdAt,value
2022-09-18T00:01:38.816Z,98600.34
2022-09-18T00:04:09.007Z,98599.09
2022-09-18T00:06:38.147Z,98608.66
2022-09-18T00:09:08.285Z,98611.13
2022-09-18T00:11:37.533Z,98616.94
2022-09-18T00:14:06.183Z,98610.09
2022-09-18T00:16:34.555Z,98606.53
2022-09-18T00:19:02.591Z,98605.56
2022-09-18T00:21:35.849Z,98599.13
2022-09-18T00:24:04.725Z,98611.84
2022-09-18T00:26:33.338Z,98605.34
2022-09-18T00:29:01.347Z,98608.25
2022-09-18T00:31:30.585Z,98620.38
2022-09-18T00:33:59.330Z,98616.75
2022-09-18T00:36:27.575Z,98612.97
2022-09-18T00:38:59.220Z,98617.59
2022-09-18T00:41:28.422Z,98619.41
2022-09-18T00:43:58.396Z,98619.09
2022-09-18T00:46:31.635Z,98605.47
2022-09-18T00:49:04.015Z,98617.41
2022-09-18T00:51:32.906Z,98612.91
2022-09-18T00:54:07.605Z,98618.78
2022-09-18T00:56:36.064Z,98617.38
2022-09-18T00:59:05.257Z,98630.72
2022-09-18T01:01:33.344Z,98631.81
2022-09-18T01:04:01.442Z,98637.03
2022-09-18T01:06:34.478Z,98638.34
2022-09-18T01:09:09.320Z,98630.72
2022-09-18T01:11:39.780Z,98639.13
2022-09-18T01:14:24.672Z,98645.44
2022-09-18T01:16:57.455Z,98626.50
2022-09-18T01:19:32.328Z,98632.91
2022-09-18T01:22:05.615Z,98632.97
2022-09-18T01:24:51.621Z,98637.25
2022-09-18T01:27:26.165Z,98631.75
2022-09-18T01:29:58.959Z,98633.69
2022-09-18T01:32:28.872Z,98634.56
2022-09-18T01:34:59.644Z,98632.34
2022-09-18T01:37:30.956Z,98628.00
2022-09-18T01:40:02.624Z,98632.94
2022-09-18T01:42:33.885Z,98634.84
2022-09-18T01:45:07.105Z,98634.59
2022-09-18T01:47:38.250Z,98634.56
2022-09-18T01:50:09.107Z,98633.88
2022-09-18T01:52:39.008Z,98637.03
2022-09-18T01:55:10.243Z,98630.09
2022-09-18T01:57:42.158Z,98635.47
2022-09-18T02:00:13.838Z,98640.81
2022-09-18T02:02:47.259Z,98640.88
2022-09-18T02:05:19.391Z,98641.22
2022-09-18T02:07:50.613Z,98640.03
2022-09-18T02:10:21.360Z,98631.53
2022-09-18T02:12:49.867Z,98636.66
2022-09-18T02:15:19.587Z,98629.44
2022-09-18T02:17:56.415Z,98626.91
2022-09-18T02:20:31.375Z,98618.66
2022-09-18T02:23:01.766Z,98623.38
2022-09-18T02:25:32.232Z,98623.25
2022-09-18T02:28:01.544Z,98625.09
2022-09-18T02:30:31.249Z,98618.78
2022-09-18T02:33:00.903Z,98629.78
2022-09-18T02:35:35.699Z,98629.59
2022-09-18T02:38:06.051Z,98627.38
2022-09-18T02:40:41.869Z,98628.22
2022-09-18T02:43:19.787Z,98639.84
2022-09-18T02:45:54.704Z,98625.91
2022-09-18T02:48:31.094Z,98633.41
2022-09-18T02:51:03.325Z,98622.97
2022-09-18T02:53:36.834Z,98630.34
2022-09-18T02:56:06.592Z,98626.22
2022-09-18T02:58:39.313Z,98598.94
2022-09-18T03:01:11.286Z,98623.22
2022-09-18T03:03:39.994Z,98619.28
2022-09-18T03:06:10.538Z,98618.59
2022-09-18T03:08:39.171Z,98615.06
2022-09-18T03:11:07.511Z,98610.31
2022-09-18T03:13:35.906Z,98608.94
2022-09-18T03:16:04.552Z,98602.09
2022-09-18T03:18:34.425Z,98610.50
2022-09-18T03:21:02.472Z,98600.22
2022-09-18T03:23:30.632Z,98602.19
2022-09-18T03:26:10.910Z,98604.44
2022-09-18T03:28:39.606Z,98603.03
2022-09-18T03:31:07.785Z,98614.22
2022-09-18T03:33:37.600Z,98603.88
2022-09-18T03:36:06.080Z,98612.97
2022-09-18T03:38:34.444Z,98617.56
2022-09-18T03:41:02.614Z,98621.78
2022-09-18T03:43:31.042Z,98617.44
2022-09-18T03:45:59.299Z,98618.41
2022-09-18T03:48:27.288Z,98624.78
2022-09-18T03:50:56.709Z,98623.03
2022-09-18T03:53:24.808Z,98632.47
2022-09-18T03:56:02.159Z,98630.41
2022-09-18T03:58:36.232Z,98638.31
2022-09-18T04:01:35.016Z,98633.94
2022-09-18T04:04:23.692Z,98632.06
2022-09-18T04:07:11.436Z,98625.38
2022-09-18T04:10:09.317Z,98634.97
2022-09-18T04:12:39.463Z,98627.44
2022-09-18T04:15:16.360Z,98633.69
2022-09-18T04:17:48.032Z,98637.84
2022-09-18T04:20:16.175Z,98642.00
2022-09-18T04:22:45.586Z,98621.72
2022-09-18T04:25:13.573Z,98625.09
2022-09-18T04:27:42.090Z,98619.97
2022-09-18T04:30:10.774Z,98622.94
2022-09-18T04:32:42.726Z,98622.84
2022-09-18T04:35:11.132Z,98618.59
2022-09-18T04:37:45.467Z,98617.72
2022-09-18T04:40:14.085Z,98623.78
2022-09-18T04:42:42.646Z,98621.94
2022-09-18T04:45:12.018Z,98614.53
2022-09-18T04:47:41.938Z,98628.38
2022-09-18T04:50:10.923Z,98616.78
2022-09-18T04:53:00.328Z,98626.13
2022-09-18T04:55:29.709Z,98626.44
2022-09-18T04:57:57.794Z,98634.88
2022-09-18T05:00:25.972Z,98630.84
2022-09-18T05:02:54.115Z,98637.03
2022-09-18T05:05:25.698Z,98626.25
2022-09-18T05:07:53.921Z,98636.38
2022-09-18T05:10:26.210Z,98635.47
2022-09-18T05:12:54.314Z,98637.75
2022-09-18T05:15:22.656Z,98644.34
2022-09-18T05:17:59.283Z,98647.31
2022-09-18T05:20:36.541Z,98653.72
2022-09-18T05:23:08.387Z,98649.50
2022-09-18T05:25:39.124Z,98654.66
2022-09-18T05:28:07.190Z,98640.44
2022-09-18T05:30:43.155Z,98648.47
2022-09-18T05:33:12.908Z,98651.03
2022-09-18T05:35:42.925Z,98655.13
2022-09-18T05:38:11.451Z,98661.63
2022-09-18T05:40:45.028Z,98666.06
2022-09-18T05:43:15.695Z,98667.53
2022-09-18T05:45:44.700Z,98667.63
2022-09-18T05:48:20.291Z,98646.88
2022-09-18T05:50:48.400Z,98670.94
2022-09-18T05:53:18.602Z,98663.59
2022-09-18T05:56:03.947Z,98656.63
2022-09-18T05:58:32.910Z,98663.94
2022-09-18T06:01:04.507Z,98663.69
2022-09-18T06:03:51.575Z,98669.06
2022-09-18T06:06:21.068Z,98675.09
2022-09-18T06:08:50.288Z,98670.00
2022-09-18T06:11:19.656Z,98677.09
2022-09-18T06:13:49.065Z,98682.47
2022-09-18T06:16:17.173Z,98676.94
2022-09-18T06:18:52.988Z,98678.72
2022-09-18T06:21:22.616Z,98675.66
2022-09-18T06:23:50.635Z,98685.69
2022-09-18T06:26:28.482Z,98680.38
2022-09-18T06:28:56.456Z,98666.19
2022-09-18T06:31:24.890Z,98672.63
2022-09-18T06:34:01.541Z,98682.56
2022-09-18T06:36:29.616Z,98680.53
2022-09-18T06:39:11.547Z,98667.94
2022-09-18T06:41:42.755Z,98677.34
2022-09-18T06:44:20.183Z,98669.31
2022-09-18T06:46:54.877Z,98670.47
2022-09-18T06:49:35.527Z,98662.53
2022-09-18T06:52:04.994Z,98674.47
2022-09-18T06:54:34.929Z,98672.84
2022-09-18T06:57:07.216Z,98673.59
2022-09-18T06:59:37.064Z,98667.84
2022-09-18T07:02:05.415Z,98661.81
2022-09-18T07:05:05.694Z,98647.41
2022-09-18T07:07:37.399Z,98648.84
2022-09-18T07:10:09.031Z,98640.94
2022-09-18T07:12:46.722Z,98640.53
2022-09-18T07:15:15.269Z,98631.97
2022-09-18T07:17:43.649Z,98621.53
2022-09-18T07:20:14.982Z,98635.81
2022-09-18T07:22:53.440Z,98635.50
2022-09-18T07:25:22.909Z,98636.94
2022-09-18T07:27:52.885Z,98631.00
2022-09-18T07:30:22.278Z,98629.34
2022-09-18T07:32:53.262Z,98623.44
2022-09-18T07:35:26.696Z,98635.41
2022-09-18T07:37:58.007Z,98629.28
2022-09-18T07:40:37.736Z,98612.78
2022-09-18T07:43:11.261Z,98622.28
2022-09-18T07:45:45.978Z,98620.72
2022-09-18T07:48:14.343Z,98631.34
2022-09-18T07:50:47.581Z,98631.78
2022-09-18T07:53:17.601Z,98637.16
2022-09-18T07:55:48.516Z,98641.09
2022-09-18T07:58:20.662Z,98639.13
2022-09-18T08:01:01.316Z,98642.16
2022-09-18T08:03:32.066Z,98656.84
2022-09-18T08:06:22.979Z,98649.69
2022-09-18T08:09:13.716Z,98653.19
2022-09-18T08:11:59.084Z,98637.53
2022-09-18T08:14:33.899Z,98641.22
2022-09-18T08:17:20.898Z,98633.59
2022-09-18T08:20:24.291Z,98645.59
2022-09-18T08:22:55.389Z,98643.19
2022-09-18T08:25:27.333Z,98642.38
2022-09-18T08:27:55.927Z,98637.88
2022-09-18T08:30:38.197Z,98641.53
2022-09-18T08:33:11.861Z,98639.53
2022-09-18T08:35:41.157Z,98643.75
2022-09-18T08:38:19.958Z,98642.38
2022-09-18T08:41:24.533Z,98636.13
2022-09-18T08:43:57.331Z,98645.38
2022-09-18T08:46:30.836Z,98638.09
2022-09-18T08:49:02.727Z,98647.50
2022-09-18T08:51:34.530Z,98636.81
2022-09-18T08:54:14.272Z,98633.97
2022-09-18T08:57:22.354Z,98627.97
2022-09-18T09:00:16.937Z,98643.34
2022-09-18T09:02:53.054Z,98639.63
2022-09-18T09:05:22.597Z,98653.78
2022-09-18T09:08:00.020Z,98638.75
2022-09-18T09:10:36.744Z,98638.00
2022-09-18T09:13:18.761Z,98643.47
2022-09-18T09:15:51.895Z,98646.38
2022-09-18T09:18:24.238Z,98635.81
2022-09-18T09:20:53.069Z,98641.22
2022-09-18T09:23:35.351Z,98639.16
2022-09-18T09:26:12.841Z,98640.25
2022-09-18T09:29:11.937Z,98623.06
2022-09-18T09:31:57.281Z,98638.94
2022-09-18T09:34:29.279Z,98626.50
2022-09-18T09:37:03.572Z,98616.47
2022-09-18T09:39:35.362Z,98625.66
2022-09-18T09:42:07.686Z,98623.56
2022-09-18T09:44:38.303Z,98609.06
2022-09-18T09:47:15.118Z,98618.94
2022-09-18T09:49:48.138Z,98609.94
2022-09-18T09:52:20.249Z,98614.31
2022-09-18T09:54:54.105Z,98603.66
2022-09-18T09:57:27.450Z,98601.94
2022-09-18T10:00:00.683Z,98604.88
2022-09-18T10:02:57.257Z,98598.91
2022-09-18T10:05:32.501Z,98600.28
2022-09-18T10:08:03.871Z,98595.16
2022-09-18T10:10:37.640Z,98598.94
2022-09-18T10:13:07.403Z,98603.19
2022-09-18T10:15:39.251Z,98600.28
2022-09-18T10:18:16.332Z,98590.56
2022-09-18T10:20:49.404Z,98599.09
2022-09-18T10:23:20.911Z,98594.34
2022-09-18T10:25:53.652Z,98591.94
2022-09-18T10:28:25.538Z,98584.28
2022-09-18T10:30:57.731Z,98583.28
2022-09-18T10:33:33.093Z,98580.25
2022-09-18T10:36:12.783Z,98568.91
2022-09-18T10:38:41.180Z,98566.34
2022-09-18T10:41:29.359Z,98562.69
2022-09-18T10:44:02.411Z,98565.91
2022-09-18T10:46:33.940Z,98559.59
2022-09-18T10:49:05.871Z,98554.56
2022-09-18T10:51:35.939Z,98558.88
2022-09-18T10:54:05.933Z,98548.59
2022-09-18T10:56:53.324Z,98544.19
2022-09-18T10:59:39.467Z,98546.38
2022-09-18T11:02:18.422Z,98539.59
2022-09-18T11:04:47.747Z,98545.94
2022-09-18T11:07:25.549Z,98557.19
2022-09-18T11:09:54.674Z,98548.59
2022-09-18T11:12:27.065Z,98542.94
2022-09-18T11:15:02.254Z,98543.78
2022-09-18T11:17:32.963Z,98534.31
2022-09-18T11:20:06.938Z,98528.56
2022-09-18T11:22:50.413Z,98525.06
2022-09-18T11:25:31.793Z,98525.09
2022-09-18T11:28:22.385Z,98513.41
2022-09-18T11:30:58.276Z,98527.69
2022-09-18T11:33:28.653Z,98523.28
2022-09-18T11:36:01.667Z,98512.47
2022-09-18T11:38:39.899Z,98508.03
2022-09-18T11:41:09.666Z,98505.44
2022-09-18T11:43:45.163Z,98508.25
2022-09-18T11:46:24.953Z,98502.84
2022-09-18T11:49:00.227Z,98514.13
2022-09-18T11:51:51.636Z,98496.53
2022-09-18T11:54:27.475Z,98510.78
2022-09-18T11:56:59.010Z,98480.19
2022-09-18T11:59:30.681Z,98497.88
2022-09-18T12:02:02.806Z,98488.53
2022-09-18T12:04:35.117Z,98488.03
2022-09-18T12:07:06.420Z,98498.41
2022-09-18T12:09:39.908Z,98486.50
2022-09-18T12:12:09.734Z,98485.00
2022-09-18T12:14:42.737Z,98501.09
2022-09-18T12:17:23.599Z,98497.28
2022-09-18T12:19:55.023Z,98493.25
2022-09-18T12:22:27.999Z,98485.06
2022-09-18T12:24:58.827Z,98472.47
2022-09-18T12:27:52.963Z,98477.13
2022-09-18T12:30:25.115Z,98468.56
2022-09-18T12:33:13.377Z,98477.66
2022-09-18T12:35:58.341Z,98481.28
2022-09-18T12:38:41.822Z,98485.72
2022-09-18T12:41:37.476Z,98478.94
2022-09-18T12:44:26.971Z,98483.63
2022-09-18T12:47:24.967Z,98474.31
2022-09-18T12:50:06.513Z,98464.84
2022-09-18T12:52:50.837Z,98476.81
2022-09-18T12:55:40.220Z,98464.25
2022-09-18T12:58:16.480Z,98472.81
2022-09-18T13:00:46.469Z,98479.03
2022-09-18T13:03:18.303Z,98468.56
2022-09-18T13:05:51.284Z,98471.22
2022-09-18T13:08:24.743Z,98473.41
2022-09-18T13:10:57.839Z,98466.06
2022-09-18T13:13:39.177Z,98470.13
2022-09-18T13:16:13.787Z,98462.69
2022-09-18T13:18:49.400Z,98467.50
2022-09-18T13:21:26.371Z,98463.19
2022-09-18T13:23:55.996Z,98451.00
2022-09-18T13:26:27.299Z,98452.72
2022-09-18T13:28:56.974Z,98455.84
2022-09-18T13:31:29.035Z,98451.66
2022-09-18T13:34:00.262Z,98460.63
2022-09-18T13:36:31.785Z,98454.38
2022-09-18T13:39:03.275Z,98452.09
2022-09-18T13:41:42.114Z,98456.72
2022-09-18T13:44:18.700Z,98460.03
2022-09-18T13:46:46.925Z,98456.38
2022-09-18T13:49:19.077Z,98444.69
2022-09-18T13:51:47.374Z,98442.03
2022-09-18T13:54:23.235Z,98444.66
2022-09-18T13:57:17.407Z,98440.53
2022-09-18T13:59:52.417Z,98427.59
2022-09-18T14:02:27.914Z,98437.84
2022-09-18T14:05:17.683Z,98422.50
2022-09-18T14:08:04.506Z,98428.16
2022-09-18T14:10:38.197Z,98432.88
2022-09-18T14:13:29.206Z,98428.72
2022-09-18T14:16:01.170Z,98426.66
2022-09-18T14:18:34.447Z,98430.72
2022-09-18T14:21:14.722Z,98417.06
2022-09-18T14:24:02.911Z,98423.97
2022-09-18T14:27:03.949Z,98414.06
2022-09-18T14:29:33.989Z,98419.03
2022-09-18T14:32:03.497Z,98422.44
2022-09-18T14:34:35.263Z,98415.50
2022-09-18T14:37:19.800Z,98411.63
2022-09-18T14:39:49.894Z,98414.50
2022-09-18T14:42:23.956Z,98402.47
2022-09-18T14:44:54.426Z,98403.13
2022-09-18T14:47:24.987Z,98405.44
2022-09-18T14:49:53.877Z,98398.88
2022-09-18T14:52:24.642Z,98395.47
2022-09-18T14:54:54.651Z,98409.22
2022-09-18T14:57:27.196Z,98391.38
2022-09-18T14:59:58.394Z,98385.63
2022-09-18T15:02:33.051Z,98385.69
2022-09-18T15:05:03.555Z,98394.38
2022-09-18T15:07:31.866Z,98379.63
2022-09-18T15:10:02.551Z,98373.63
2022-09-18T15:12:34.620Z,98376.75
2022-09-18T15:15:26.290Z,98345.09
2022-09-18T15:17:57.028Z,98375.50
2022-09-18T15:20:27.012Z,98373.28
2022-09-18T15:22:57.866Z,98360.66
2022-09-18T15:25:31.814Z,98361.59
2022-09-18T15:28:07.667Z,98367.59
2022-09-18T15:30:38.978Z,98360.28
2022-09-18T15:33:18.773Z,98363.81
2022-09-18T15:35:53.171Z,98369.44
2022-09-18T15:38:26.011Z,98364.78
2022-09-18T15:40:55.325Z,98361.09
2022-09-18T15:43:40.912Z,98363.50
2022-09-18T15:46:11.212Z,98363.31
2022-09-18T15:48:44.918Z,98353.88
2022-09-18T15:51:16.756Z,98355.47
2022-09-18T15:54:04.247Z,98356.63
2022-09-18T15:56:34.217Z,98356.19
2022-09-18T15:59:05.000Z,98344.13
2022-09-18T16:01:36.119Z,98346.25
2022-09-18T16:04:16.057Z,98346.09
2022-09-18T16:06:54.669Z,98340.44
2022-09-18T16:09:26.155Z,98333.03
2022-09-18T16:11:54.553Z,98337.59
2022-09-18T16:15:02.816Z,98333.59
2022-09-18T16:17:40.415Z,98326.03
2022-09-18T16:20:38.836Z,98331.34
2022-09-18T16:23:16.341Z,98330.97
2022-09-18T16:25:45.441Z,98334.09
2022-09-18T16:28:23.693Z,98314.75
2022-09-18T16:30:53.031Z,98312.09
2022-09-18T16:33:24.122Z,98307.97
2022-09-18T16:36:01.094Z,98314.56
2022-09-18T16:38:29.813Z,98314.75
2022-09-18T16:41:00.476Z,98310.03
2022-09-18T16:43:29.533Z,98305.44
2022-09-18T16:45:57.835Z,98305.84
2022-09-18T16:48:26.282Z,98300.50
2022-09-18T16:50:55.915Z,98300.13
2022-09-18T16:53:24.280Z,98303.78
2022-09-18T16:55:56.257Z,98306.41
2022-09-18T16:58:27.804Z,98296.59
2022-09-18T17:00:56.117Z,98300.25
2022-09-18T17:03:27.880Z,98297.25
2022-09-18T17:06:01.708Z,98295.84
2022-09-18T17:08:30.274Z,98300.03
2022-09-18T17:10:59.294Z,98294.94
2022-09-18T17:13:27.599Z,98288.13
2022-09-18T17:15:58.940Z,98291.28
2022-09-18T17:18:29.470Z,98292.09
2022-09-18T17:21:01.849Z,98287.50
2022-09-18T17:23:32.863Z,98290.13
2022-09-18T17:26:06.160Z,98285.34
2022-09-18T17:28:34.379Z,98279.59
2022-09-18T17:31:09.481Z,98279.19
2022-09-18T17:33:38.247Z,98275.91
2022-09-18T17:36:12.033Z,98275.13
2022-09-18T17:38:41.737Z,98274.31
2022-09-18T17:41:12.856Z,98275.50
2022-09-18T17:43:44.222Z,98274.66
2022-09-18T17:46:13.205Z,98267.97
2022-09-18T17:48:41.245Z,98275.28
2022-09-18T17:51:11.934Z,98273.81
2022-09-18T17:53:40.424Z,98273.81
2022-09-18T17:56:09.993Z,98271.25
2022-09-18T17:58:40.864Z,98269.53
2022-09-18T18:01:10.409Z,98278.25
2022-09-18T18:03:39.193Z,98269.00
2022-09-18T18:06:07.325Z,98266.78
2022-09-18T18:08:38.785Z,98271.50
2022-09-18T18:11:08.045Z,98269.94
2022-09-18T18:13:38.816Z,98284.00
2022-09-18T18:16:07.596Z,98279.91
2022-09-18T18:18:35.639Z,98285.41
2022-09-18T18:21:03.747Z,98279.06
2022-09-18T18:23:34.754Z,98292.22
2022-09-18T18:26:05.687Z,98292.03
2022-09-18T18:28:35.334Z,98298.00
2022-09-18T18:31:08.237Z,98283.25
2022-09-18T18:33:37.364Z,98293.53
2022-09-18T18:36:09.888Z,98292.88
2022-09-18T18:38:38.615Z,98291.25
2022-09-18T18:41:08.992Z,98286.22
2022-09-18T18:43:40.168Z,98294.13
2022-09-18T18:46:13.811Z,98280.47
2022-09-18T18:48:44.527Z,98288.03
2022-09-18T18:51:15.187Z,98294.28
2022-09-18T18:53:44.299Z,98298.47
2022-09-18T18:56:15.561Z,98299.31
2022-09-18T18:58:45.936Z,98294.38
2022-09-18T19:01:16.783Z,98291.94
2022-09-18T19:03:53.943Z,98303.28
2022-09-18T19:06:23.712Z,98300.56
2022-09-18T19:08:56.586Z,98306.50
2022-09-18T19:11:26.977Z,98278.44
2022-09-18T19:13:57.089Z,98292.75
2022-09-18T19:16:27.276Z,98298.19
2022-09-18T19:18:58.496Z,98295.31
2022-09-18T19:21:28.244Z,98284.44
2022-09-18T19:24:00.711Z,98292.66
2022-09-18T19:26:32.669Z,98300.03
2022-09-18T19:29:04.687Z,98307.44
2022-09-18T19:31:35.262Z,98312.31
2022-09-18T19:34:03.923Z,98312.63
2022-09-18T19:36:32.805Z,98300.72
2022-09-18T19:39:04.414Z,98314.19
2022-09-18T19:41:39.219Z,98298.63
2022-09-18T19:44:13.571Z,98331.91
2022-09-18T19:46:42.128Z,98338.09
2022-09-18T19:49:15.867Z,98343.38
2022-09-18T19:51:44.276Z,98349.22
2022-09-18T19:54:12.912Z,98354.59
2022-09-18T19:56:48.038Z,98358.00
2022-09-18T19:59:18.246Z,98360.09
2022-09-18T20:01:46.674Z,98350.84
2022-09-18T20:04:15.101Z,98366.75
2022-09-18T20:06:47.286Z,98371.78
2022-09-18T20:09:15.796Z,98362.03
2022-09-18T20:11:48.044Z,98379.31
2022-09-18T20:14:18.283Z,98379.78
2022-09-18T20:16:46.612Z,98389.16
2022-09-18T20:19:17.291Z,98404.91
2022-09-18T20:21:45.304Z,98387.16
2022-09-18T20:24:13.532Z,98392.75
2022-09-18T20:26:41.490Z,98399.34
2022-09-18T20:29:15.270Z,98396.56
2022-09-18T20:31:46.135Z,98387.78
2022-09-18T20:34:14.408Z,98383.63
2022-09-18T20:36:42.595Z,98385.78
2022-09-18T20:39:10.594Z,98388.53
2022-09-18T20:41:39.179Z,98384.56
2022-09-18T20:44:07.307Z,98384.00
2022-09-18T20:46:37.414Z,98379.81
2022-09-18T20:49:08.071Z,98376.00
2022-09-18T20:51:36.149Z,98373.28
2022-09-18T20:54:06.875Z,98367.88
2022-09-18T20:56:36.049Z,98367.75
2022-09-18T20:59:04.842Z,98362.28
2022-09-18T21:01:35.187Z,98360.84
2022-09-18T21:04:04.463Z,98363.53
2022-09-18T21:06:34.371Z,98363.84
2022-09-18T21:09:05.541Z,98379.69
2022-09-18T21:11:36.386Z,98366.59
2022-09-18T21:14:05.066Z,98372.22
2022-09-18T21:16:34.217Z,98375.75
2022-09-18T21:19:04.881Z,98370.59
2022-09-18T21:21:35.196Z,98369.91
2022-09-18T21:24:04.092Z,98375.91
2022-09-18T21:26:33.192Z,98383.25
2022-09-18T21:29:02.068Z,98377.06
2022-09-18T21:31:30.293Z,98382.38
2022-09-18T21:34:00.254Z,98369.56
2022-09-18T21:36:28.296Z,98361.00
2022-09-18T21:39:15.660Z,98367.72
2022-09-18T21:41:46.331Z,98355.13
2022-09-18T21:44:15.273Z,98358.56
2022-09-18T21:46:44.054Z,98361.59
2022-09-18T21:49:12.875Z,98367.59
2022-09-18T21:51:41.265Z,98373.72
2022-09-18T21:54:15.431Z,98368.41
2022-09-18T21:56:44.083Z,98377.22
2022-09-18T22:02:38.300Z,98367.97
2022-09-18T22:05:11.629Z,98368.78
2022-09-18T22:07:40.784Z,98376.53
2022-09-18T22:10:09.746Z,98384.50
2022-09-18T22:12:38.919Z,98396.81
2022-09-18T22:15:08.096Z,98400.84
2022-09-18T22:17:39.073Z,98411.75
2022-09-18T22:20:07.730Z,98424.06
2022-09-18T22:22:36.274Z,98443.91
2022-09-18T22:25:04.654Z,98480.19
2022-09-18T22:27:32.639Z,98489.56
2022-09-18T22:30:00.662Z,98497.19
2022-09-18T22:32:28.655Z,98509.56
2022-09-18T22:34:58.211Z,98500.38
2022-09-18T22:37:26.978Z,98516.41
2022-09-18T22:39:56.083Z,98528.91
2022-09-18T22:42:24.188Z,98538.06
2022-09-18T22:44:52.291Z,98543.94
2022-09-18T22:47:20.591Z,98556.31
2022-09-18T22:49:48.609Z,98565.09
2022-09-18T22:52:17.926Z,98569.69
2022-09-18T22:54:46.002Z,98565.84
2022-09-18T22:57:14.243Z,98581.59
2022-09-18T22:59:42.376Z,98575.38
2022-09-18T23:02:10.602Z,98574.97
2022-09-18T23:04:40.800Z,98585.28
2022-09-18T23:07:08.800Z,98582.31
2022-09-18T23:09:38.098Z,98586.94
2022-09-18T23:12:06.308Z,98596.47
2022-09-18T23:14:34.321Z,98597.66
2022-09-18T23:17:02.883Z,98605.19
2022-09-18T23:19:31.975Z,98597.75
2022-09-18T23:22:00.245Z,98598.94
2022-09-18T23:24:28.720Z,98595.06
2022-09-18T23:26:58.697Z,98608.00
2022-09-18T23:29:27.730Z,98607.03
2022-09-18T23:31:58.277Z,98610.19
2022-09-18T23:34:29.644Z,98621.06
2022-09-18T23:36:59.854Z,98632.50
2022-09-18T23:39:28.620Z,98629.03
2022-09-18T23:41:59.228Z,98632.75
2022-09-18T23:44:30.058Z,98637.91
2022-09-18T23:46:58.127Z,98633.13
2022-09-18T23:49:26.659Z,98632.97
2022-09-18T23:51:54.956Z,98640.41
2022-09-18T23:54:26.519Z,98642.91
2022-09-18T23:56:58.151Z,98647.47
2022-09-18T23:59:26.850Z,98654.47
